Terminal Aerodrome Forecast
Issued by NWS Wilmington, OH

Current Version | Previous Version | Text Only | Print | Product List | Glossary Off
Versions: 1 2 3 4 5 6 7 8 9 10 11 12 13 14 15 16 17 18 19 20 21 22 23 24 25

000
FTUS41 KILN 142300 RRA
TAFDAY
TAF
KDAY 142341Z 1500/1524 33011KT P6SM OVC015
     FM150200 33014KT P6SM -RA OVC012
     FM150400 34015KT 4SM -RA BR OVC008
     FM150600 34015G23KT 1SM -SN OVC006
     FM150900 33018G26KT 4SM -SN OVC008
     FM151100 33018G26KT P6SM OVC008
     FM151400 32016G24KT P6SM BKN018
     FM151800 32016G24KT P6SM BKN035
     FM152300 31011KT P6SM SCT035=

USA.gov is the U.S. government's official web portal to all federal, state and local government web resources and services.